createdAt,value
2018-03-04T00:01:30.062Z,59.63
2018-03-04T00:03:57.512Z,61.13
2018-03-04T00:06:24.989Z,56.60
2018-03-04T00:08:55.757Z,66.23
2018-03-04T00:11:23.191Z,61.90
2018-03-04T00:13:50.712Z,55.67
2018-03-04T00:16:18.214Z,61.25
2018-03-04T00:18:46.326Z,63.50
2018-03-04T00:21:13.805Z,65.62
2018-03-04T00:23:41.260Z,62.53
2018-03-04T00:26:08.944Z,67.77
2018-03-04T00:28:36.397Z,62.20
2018-03-04T00:31:03.869Z,59.30
2018-03-04T00:33:31.308Z,65.80
2018-03-04T00:35:58.771Z,60.73
2018-03-04T00:38:26.216Z,66.10
2018-03-04T00:40:53.708Z,65.78
2018-03-04T00:43:21.145Z,65.70
2018-03-04T00:45:50.596Z,67.42
2018-03-04T00:48:18.141Z,67.37
2018-03-04T00:50:46.370Z,70.50
2018-03-04T00:53:14.000Z,58.50
2018-03-04T00:55:41.429Z,64.05
2018-03-04T00:58:08.915Z,69.67
2018-03-04T01:00:37.135Z,58.63
2018-03-04T01:03:04.649Z,71.13
2018-03-04T01:05:32.190Z,64.83
2018-03-04T01:07:59.692Z,60.90
2018-03-04T01:10:27.924Z,67.83
2018-03-04T01:12:55.368Z,58.73
2018-03-04T01:15:22.857Z,62.47
2018-03-04T01:17:50.312Z,68.97
2018-03-04T01:20:17.770Z,58.80
2018-03-04T01:22:45.244Z,69.85
2018-03-04T01:25:12.684Z,64.25
2018-03-04T01:27:40.221Z,69.73
2018-03-04T01:30:07.673Z,64.43
2018-03-04T01:32:36.721Z,69.37
2018-03-04T01:35:04.205Z,64.60
2018-03-04T01:37:31.656Z,59.57
2018-03-04T01:39:59.119Z,65.30
2018-03-04T01:42:26.769Z,64.20
2018-03-04T01:44:54.219Z,66.93
2018-03-04T01:47:21.713Z,58.60
2018-03-04T01:49:50.738Z,73.03
2018-03-04T01:52:18.196Z,69.85
2018-03-04T01:54:45.661Z,68.77
2018-03-04T01:57:13.108Z,61.83
2018-03-04T01:59:40.577Z,69.53
2018-03-04T02:02:09.664Z,85.62
2018-03-04T02:04:37.155Z,61.97
2018-03-04T02:07:04.608Z,75.50
2018-03-04T02:09:32.048Z,66.23
2018-03-04T02:11:59.736Z,69.90
2018-03-04T02:14:27.184Z,67.82
2018-03-04T02:16:54.668Z,76.03
2018-03-04T02:19:23.591Z,66.43
2018-03-04T02:21:51.058Z,67.57
2018-03-04T02:24:18.502Z,74.77
2018-03-04T02:26:50.015Z,76.67
2018-03-04T02:29:17.445Z,82.90
2018-03-04T02:31:44.925Z,84.60
2018-03-04T02:34:12.373Z,73.50
2018-03-04T02:36:39.820Z,77.87
2018-03-04T02:39:07.390Z,76.75
2018-03-04T02:41:34.841Z,78.00
2018-03-04T02:44:02.322Z,81.87
2018-03-04T02:46:29.754Z,81.47
2018-03-04T02:48:57.317Z,90.70
2018-03-04T02:51:25.756Z,77.45
2018-03-04T02:53:53.199Z,86.50
2018-03-04T02:56:20.673Z,92.07
2018-03-04T02:58:48.113Z,76.73
2018-03-04T03:01:15.588Z,99.90
2018-03-04T03:03:43.038Z,98.17
2018-03-04T03:06:10.481Z,99.90
2018-03-04T03:08:38.004Z,94.50
2018-03-04T03:11:05.452Z,93.12
2018-03-04T03:13:34.447Z,99.43
2018-03-04T03:16:01.921Z,97.03
2018-03-04T03:18:29.400Z,105.17
2018-03-04T03:20:56.897Z,99.72
2018-03-04T03:23:24.348Z,100.97
2018-03-04T03:25:55.444Z,83.07
2018-03-04T03:28:23.112Z,89.85
2018-03-04T03:30:51.010Z,87.57
2018-03-04T03:33:18.575Z,84.40
2018-03-04T03:35:46.156Z,90.00
2018-03-04T03:38:13.818Z,97.43
2018-03-04T03:40:41.296Z,79.40
2018-03-04T03:43:08.737Z,97.17
2018-03-04T03:45:37.870Z,90.83
2018-03-04T03:48:05.333Z,96.20
2018-03-04T03:50:32.787Z,94.83
2018-03-04T03:53:00.241Z,101.17
2018-03-04T03:55:27.686Z,108.50
2018-03-04T03:57:56.089Z,91.30
2018-03-04T04:00:23.529Z,84.53
2018-03-04T04:02:51.268Z,113.07
2018-03-04T04:05:18.733Z,98.97
2018-03-04T04:07:46.188Z,103.50
2018-03-04T04:10:13.647Z,110.37
2018-03-04T04:12:41.111Z,94.30
2018-03-04T04:15:08.569Z,107.23
2018-03-04T04:17:36.228Z,93.22
2018-03-04T04:20:04.597Z,98.23
2018-03-04T04:22:32.048Z,92.47
2018-03-04T04:24:59.749Z,94.60
2018-03-04T04:27:28.904Z,97.83
2018-03-04T04:29:56.356Z,83.47
2018-03-04T04:32:23.822Z,93.17
2018-03-04T04:34:51.264Z,93.40
2018-03-04T04:37:18.732Z,111.10
2018-03-04T04:39:46.184Z,105.30
2018-03-04T04:42:17.650Z,97.67
2018-03-04T04:44:45.122Z,107.97
2018-03-04T04:47:12.877Z,97.50
2018-03-04T04:49:40.344Z,91.80
2018-03-04T04:52:07.812Z,98.87
2018-03-04T04:54:35.286Z,101.97
2018-03-04T04:57:02.734Z,85.83
2018-03-04T04:59:33.219Z,97.70
2018-03-04T05:02:00.677Z,99.97
2018-03-04T05:04:28.120Z,93.15
2018-03-04T05:06:55.597Z,98.43
2018-03-04T05:09:23.066Z,92.53
2018-03-04T05:11:51.438Z,88.80
2018-03-04T05:14:18.881Z,106.67
2018-03-04T05:16:46.377Z,92.67
2018-03-04T05:19:13.809Z,98.67
2018-03-04T05:21:41.276Z,114.10
2018-03-04T05:24:08.724Z,93.62
2018-03-04T05:26:36.188Z,87.63
2018-03-04T05:29:03.640Z,87.37
2018-03-04T05:31:31.105Z,108.50
2018-03-04T05:33:59.257Z,103.10
2018-03-04T05:36:26.713Z,99.65
2018-03-04T05:38:54.176Z,84.07
2018-03-04T05:41:21.623Z,104.85
2018-03-04T05:43:53.589Z,102.33
2018-03-04T05:46:21.052Z,85.23
2018-03-04T05:48:48.845Z,91.65
2018-03-04T05:51:16.284Z,93.07
2018-03-04T05:53:43.745Z,87.10
2018-03-04T05:56:11.484Z,101.90
2018-03-04T05:58:43.528Z,94.60
2018-03-04T06:01:10.989Z,97.27
2018-03-04T06:03:38.489Z,100.05
2018-03-04T06:06:06.148Z,97.13
2018-03-04T06:08:34.542Z,86.17
2018-03-04T06:11:01.996Z,108.07
2018-03-04T06:13:29.452Z,100.53
2018-03-04T06:15:57.141Z,95.90
2018-03-04T06:18:24.580Z,106.87
2018-03-04T06:20:52.537Z,92.80
2018-03-04T06:23:20.005Z,99.93
2018-03-04T06:25:47.476Z,91.80
2018-03-04T06:28:15.205Z,94.93
2018-03-04T06:30:42.868Z,104.03
2018-03-04T06:33:10.312Z,108.37
2018-03-04T06:35:37.773Z,98.47
2018-03-04T06:38:06.168Z,111.72
2018-03-04T06:40:34.375Z,102.40
2018-03-04T06:43:01.874Z,108.37
2018-03-04T06:45:29.328Z,102.70
2018-03-04T06:47:56.852Z,99.37
2018-03-04T06:50:24.308Z,104.23
2018-03-04T06:52:51.768Z,109.73
2018-03-04T06:55:20.014Z,110.88
2018-03-04T06:57:47.493Z,103.80
2018-03-04T07:00:15.063Z,92.60
2018-03-04T07:02:42.536Z,117.32
2018-03-04T07:05:10.009Z,105.78
2018-03-04T07:07:37.455Z,114.17
2018-03-04T07:10:04.923Z,104.60
2018-03-04T07:12:33.312Z,89.13
2018-03-04T07:15:04.233Z,103.25
2018-03-04T07:17:31.869Z,99.13
2018-03-04T07:19:59.346Z,112.32
2018-03-04T07:22:26.788Z,95.90
2018-03-04T07:24:54.253Z,104.60
2018-03-04T07:27:21.701Z,95.40
2018-03-04T07:29:52.353Z,107.40
2018-03-04T07:32:19.804Z,100.77
2018-03-04T07:34:48.797Z,114.05
2018-03-04T07:37:16.252Z,104.03
2018-03-04T07:39:43.729Z,104.60
2018-03-04T07:42:11.199Z,101.10
2018-03-04T07:44:38.677Z,104.57
2018-03-04T07:47:07.061Z,96.32
2018-03-04T07:52:08.388Z,104.57
2018-03-04T07:54:35.844Z,94.27
2018-03-04T07:57:03.357Z,102.43
2018-03-04T07:59:30.810Z,104.80
2018-03-04T08:01:58.266Z,103.93
2018-03-04T08:04:26.551Z,102.93
2018-03-04T08:06:54.011Z,104.47
2018-03-04T08:09:21.484Z,109.10
2018-03-04T08:11:48.916Z,98.83
2018-03-04T08:14:16.436Z,95.63
2018-03-04T08:16:44.053Z,100.70
2018-03-04T08:19:11.529Z,99.00
2018-03-04T08:21:39.308Z,96.57
2018-03-04T08:24:06.766Z,95.20
2018-03-04T08:26:47.668Z,93.77
2018-03-04T08:29:15.124Z,89.75
2018-03-04T08:31:46.141Z,96.00
2018-03-04T08:34:13.592Z,99.93
2018-03-04T08:36:41.070Z,100.87
2018-03-04T08:39:08.572Z,109.53
2018-03-04T08:41:37.456Z,96.72
2018-03-04T08:44:04.905Z,90.93
2018-03-04T08:46:35.782Z,96.50
2018-03-04T08:49:03.248Z,102.70
2018-03-04T08:51:31.649Z,114.05
2018-03-04T08:53:59.090Z,95.13
2018-03-04T08:56:26.851Z,97.97
2018-03-04T08:58:56.732Z,97.93
2018-03-04T09:01:28.508Z,101.00
2018-03-04T09:03:56.875Z,91.07
2018-03-04T09:06:24.345Z,97.90
2018-03-04T09:08:51.799Z,99.87
2018-03-04T09:11:20.047Z,101.57
2018-03-04T09:13:47.522Z,101.07
2018-03-04T09:16:14.952Z,87.77
2018-03-04T09:18:42.456Z,87.03
2018-03-04T09:21:10.820Z,84.57
2018-03-04T09:23:38.276Z,108.43
2018-03-04T09:26:05.759Z,110.70
2018-03-04T09:28:33.197Z,98.78
2018-03-04T09:31:01.437Z,102.93
2018-03-04T09:33:29.814Z,87.50
2018-03-04T09:35:57.291Z,97.10
2018-03-04T09:38:24.791Z,94.80
2018-03-04T09:40:52.228Z,99.87
2018-03-04T09:43:19.699Z,86.07
2018-03-04T09:45:47.956Z,94.40
2018-03-04T09:48:15.463Z,98.50
2018-03-04T09:50:43.108Z,94.43
2018-03-04T09:53:10.581Z,92.67
2018-03-04T09:55:38.706Z,105.07
2018-03-04T09:58:06.155Z,86.40
2018-03-04T10:00:33.621Z,97.73
2018-03-04T10:03:01.095Z,95.35
2018-03-04T10:05:28.553Z,94.00
2018-03-04T10:07:56.284Z,97.13
2018-03-04T10:10:23.729Z,91.63
2018-03-04T10:12:52.426Z,91.97
2018-03-04T10:15:19.905Z,83.97
2018-03-04T10:17:47.351Z,85.57
2018-03-04T10:20:14.821Z,90.97
2018-03-04T10:22:42.278Z,87.63
2018-03-04T10:25:09.735Z,88.97
2018-03-04T10:27:37.181Z,89.55
2018-03-04T10:30:04.918Z,88.93
2018-03-04T10:32:32.398Z,87.23
2018-03-04T10:35:04.162Z,88.90
2018-03-04T10:37:31.624Z,92.10
2018-03-04T10:39:59.308Z,85.93
2018-03-04T10:42:26.845Z,94.57
2018-03-04T10:44:55.070Z,84.22
2018-03-04T10:47:22.516Z,79.17
2018-03-04T10:49:52.903Z,82.87
2018-03-04T10:52:20.384Z,79.73
2018-03-04T10:54:47.969Z,89.23
2018-03-04T10:57:15.460Z,88.50
2018-03-04T10:59:42.971Z,80.00
2018-03-04T11:02:17.148Z,81.53
2018-03-04T11:04:44.872Z,72.28
2018-03-04T11:07:12.325Z,76.25
2018-03-04T11:09:39.934Z,71.20
2018-03-04T11:12:07.385Z,79.40
2018-03-04T11:14:34.825Z,78.87
2018-03-04T11:17:02.309Z,77.97
2018-03-04T11:19:32.808Z,77.20
2018-03-04T11:22:00.255Z,70.43
2018-03-04T11:24:27.740Z,73.95
2018-03-04T11:26:55.195Z,68.15
2018-03-04T11:29:23.192Z,68.13
2018-03-04T11:31:50.636Z,76.85
2018-03-04T11:34:21.876Z,73.30
2018-03-04T11:36:49.336Z,75.77
2018-03-04T11:39:16.805Z,85.27
2018-03-04T11:41:44.256Z,88.10
2018-03-04T11:44:12.527Z,68.93
2018-03-04T11:46:40.062Z,75.47
2018-03-04T11:49:07.689Z,78.40
2018-03-04T11:51:35.152Z,77.33
2018-03-04T11:54:02.617Z,83.37
2018-03-04T11:56:30.084Z,71.95
2018-03-04T11:58:57.558Z,74.33
2018-03-04T12:01:25.101Z,76.53
2018-03-04T12:03:52.611Z,70.78
2018-03-04T12:06:20.053Z,74.80
2018-03-04T12:08:47.576Z,64.80
2018-03-04T12:11:15.716Z,89.70
2018-03-04T12:13:43.210Z,80.63
2018-03-04T12:18:44.611Z,79.63
2018-03-04T12:21:12.391Z,87.83
2018-03-04T12:23:40.772Z,76.37
2018-03-04T12:26:08.563Z,81.25
2018-03-04T12:28:36.005Z,75.77
2018-03-04T12:31:03.514Z,77.60
2018-03-04T12:33:30.999Z,88.23
2018-03-04T12:35:58.508Z,75.33
2018-03-04T12:38:25.983Z,60.80
2018-03-04T12:40:53.420Z,94.00
2018-03-04T12:43:20.895Z,61.00
2018-03-04T12:45:49.380Z,67.23
2018-03-04T12:48:17.631Z,47.73
2018-03-04T12:50:45.081Z,50.70
2018-03-04T12:53:12.542Z,58.65
2018-03-04T12:55:40.164Z,66.77
2018-03-04T12:58:08.994Z,62.15
2018-03-04T13:00:36.456Z,77.85
2018-03-04T13:03:03.943Z,69.93
2018-03-04T13:05:35.889Z,72.07
2018-03-04T13:08:03.566Z,55.73
2018-03-04T13:10:31.002Z,57.53
2018-03-04T13:12:58.464Z,78.43
2018-03-04T13:15:25.928Z,58.77
2018-03-04T13:17:54.122Z,64.70
2018-03-04T13:20:22.190Z,65.07
2018-03-04T13:22:49.794Z,63.40
2018-03-04T13:25:17.275Z,75.70
2018-03-04T13:27:44.776Z,81.97
2018-03-04T13:30:12.247Z,65.30
2018-03-04T13:32:39.732Z,59.80
2018-03-04T13:35:07.197Z,71.77
2018-03-04T13:37:37.755Z,63.83
2018-03-04T13:40:06.117Z,56.07
2018-03-04T13:42:33.892Z,64.73
2018-03-04T13:45:01.418Z,58.73
2018-03-04T13:47:29.096Z,57.23
2018-03-04T13:49:56.584Z,50.87
2018-03-04T13:52:24.034Z,48.85
2018-03-04T13:54:51.477Z,36.30
2018-03-04T13:57:19.141Z,42.77
2018-03-04T13:59:46.606Z,32.33
2018-03-04T14:02:15.388Z,42.88
2018-03-04T14:04:42.841Z,43.23
2018-03-04T14:07:10.286Z,42.20
2018-03-04T14:09:40.831Z,40.43
2018-03-04T14:12:08.299Z,44.97
2018-03-04T14:14:35.937Z,36.00
2018-03-04T14:17:04.904Z,38.00
2018-03-04T14:19:32.430Z,27.40
2018-03-04T14:21:59.887Z,23.80
2018-03-04T14:24:27.339Z,27.98
2018-03-04T14:26:55.586Z,24.20
2018-03-04T14:29:23.028Z,29.10
2018-03-04T14:31:50.497Z,29.73
2018-03-04T14:34:18.172Z,44.90
2018-03-04T14:36:48.088Z,32.80
2018-03-04T14:39:15.566Z,33.03
2018-03-04T14:41:43.013Z,36.13
2018-03-04T14:44:10.493Z,37.95
2018-03-04T14:46:37.936Z,34.28
2018-03-04T14:49:05.401Z,34.90
2018-03-04T14:51:32.853Z,41.80
2018-03-04T14:54:00.341Z,43.13
2018-03-04T14:56:27.902Z,41.90
2018-03-04T14:58:57.002Z,40.00
2018-03-04T15:01:24.472Z,37.42
2018-03-04T15:03:51.920Z,41.50
2018-03-04T15:06:19.396Z,39.47
2018-03-04T15:08:46.837Z,47.57
2018-03-04T15:11:14.314Z,44.20
2018-03-04T15:13:42.205Z,45.03
2018-03-04T15:16:10.768Z,47.97
2018-03-04T15:18:38.243Z,48.80
2018-03-04T15:21:05.733Z,49.93
2018-03-04T15:23:43.601Z,48.50
2018-03-04T15:26:11.076Z,62.90
2018-03-04T15:28:38.537Z,50.23
2018-03-04T15:31:05.981Z,50.90
2018-03-04T15:33:33.449Z,44.45
2018-03-04T15:36:00.891Z,42.57
2018-03-04T15:38:31.703Z,48.17
2018-03-04T15:40:59.333Z,45.77
2018-03-04T15:43:26.889Z,45.37
2018-03-04T15:45:55.029Z,40.60
2018-03-04T15:48:22.478Z,39.83
2018-03-04T15:50:49.925Z,41.58
2018-03-04T15:53:20.441Z,38.95
2018-03-04T15:55:48.105Z,41.30
2018-03-04T15:58:15.545Z,45.60
2018-03-04T16:00:43.656Z,46.47
2018-03-04T16:03:11.432Z,42.30
2018-03-04T16:05:40.705Z,42.87
2018-03-04T16:08:08.804Z,45.58
2018-03-04T16:10:39.160Z,62.73
2018-03-04T16:13:06.856Z,41.80
2018-03-04T16:15:34.288Z,45.50
2018-03-04T16:18:01.772Z,47.10
2018-03-04T16:20:29.217Z,45.35
2018-03-04T16:22:56.656Z,43.00
2018-03-04T16:25:24.123Z,42.33
2018-03-04T16:27:51.657Z,48.50
2018-03-04T16:30:19.121Z,44.45
2018-03-04T16:32:47.520Z,43.73
2018-03-04T16:35:14.970Z,41.43
2018-03-04T16:37:42.412Z,44.00
2018-03-04T16:40:21.775Z,53.38
2018-03-04T16:42:49.220Z,44.38
2018-03-04T16:45:16.665Z,42.53
2018-03-04T16:47:44.132Z,42.20
2018-03-04T16:50:11.576Z,44.37
2018-03-04T16:52:39.059Z,42.58
2018-03-04T16:55:08.096Z,38.22
2018-03-04T16:57:35.833Z,44.17
2018-03-04T17:00:03.272Z,54.80
2018-03-04T17:02:30.754Z,48.37
2018-03-04T17:04:58.229Z,43.08
2018-03-04T17:07:26.635Z,44.63
2018-03-04T17:09:54.064Z,51.03
2018-03-04T17:12:21.510Z,47.23
2018-03-04T17:14:49.145Z,44.97
2018-03-04T17:17:16.641Z,49.00
2018-03-04T17:19:44.123Z,55.53
2018-03-04T17:22:12.357Z,46.57
2018-03-04T17:24:43.692Z,45.17
2018-03-04T17:27:11.143Z,47.03
2018-03-04T17:29:38.598Z,46.50
2018-03-04T17:32:06.091Z,46.20
2018-03-04T17:34:33.728Z,44.77
2018-03-04T17:37:01.241Z,49.15
2018-03-04T17:39:29.286Z,54.25
2018-03-04T17:41:56.749Z,51.60
2018-03-04T17:44:24.196Z,44.63
2018-03-04T17:46:51.661Z,55.50
2018-03-04T17:49:19.309Z,62.97
2018-03-04T17:51:47.678Z,60.93
2018-03-04T17:54:15.914Z,60.23
2018-03-04T17:56:43.409Z,70.93
2018-03-04T17:59:10.847Z,63.10
2018-03-04T18:01:38.321Z,47.57
2018-03-04T18:04:05.809Z,60.20
2018-03-04T18:06:33.328Z,53.28
2018-03-04T18:09:01.627Z,57.45
2018-03-04T18:11:29.088Z,56.63
2018-03-04T18:13:56.748Z,61.28
2018-03-04T18:16:24.212Z,57.85
2018-03-04T18:18:51.685Z,57.83
2018-03-04T18:21:19.130Z,65.50
2018-03-04T18:23:47.821Z,60.65
2018-03-04T18:26:16.206Z,70.07
2018-03-04T18:28:43.641Z,68.23
2018-03-04T18:31:11.159Z,77.15
2018-03-04T18:33:38.660Z,59.25
2018-03-04T18:36:06.090Z,65.43
2018-03-04T18:38:33.738Z,61.42
2018-03-04T18:41:01.474Z,67.37
2018-03-04T18:43:29.645Z,65.57
2018-03-04T18:45:57.081Z,64.57
2018-03-04T18:48:24.560Z,66.87
2018-03-04T18:50:52.042Z,60.73
2018-03-04T18:53:19.501Z,59.30
2018-03-04T18:55:47.853Z,62.10
2018-03-04T18:58:15.373Z,62.47
2018-03-04T19:00:44.021Z,67.15
2018-03-04T19:03:11.463Z,79.83
2018-03-04T19:05:38.949Z,63.00
2018-03-04T19:08:06.572Z,61.95
2018-03-04T19:10:34.822Z,64.65
2018-03-04T19:13:06.248Z,63.50
2018-03-04T19:15:33.704Z,73.75
2018-03-04T19:18:02.104Z,83.07
2018-03-04T19:20:29.545Z,75.75
2018-03-04T19:22:57.529Z,77.53
2018-03-04T19:25:24.984Z,68.73
2018-03-04T19:27:52.472Z,75.63
2018-03-04T19:30:19.957Z,71.78
2018-03-04T19:32:47.652Z,67.65
2018-03-04T19:35:15.119Z,74.15
2018-03-04T19:37:42.649Z,70.50
2018-03-04T19:40:10.275Z,75.73
2018-03-04T19:42:41.267Z,67.70
2018-03-04T19:45:08.833Z,65.80
2018-03-04T19:47:37.096Z,79.10
2018-03-04T19:50:04.559Z,81.80
2018-03-04T19:52:32.189Z,79.63
2018-03-04T19:55:00.789Z,81.10
2018-03-04T19:57:28.224Z,75.73
2018-03-04T19:59:55.695Z,72.33
2018-03-04T20:02:23.145Z,82.83
2018-03-04T20:04:50.847Z,79.97
2018-03-04T20:07:18.311Z,67.80
2018-03-04T20:09:45.936Z,83.68
2018-03-04T20:12:14.379Z,68.90
2018-03-04T20:14:41.808Z,75.80
2018-03-04T20:17:09.289Z,76.53
2018-03-04T20:19:36.773Z,82.27
2018-03-04T20:22:04.210Z,72.70
2018-03-04T20:24:31.681Z,72.47
2018-03-04T20:26:59.161Z,71.07
2018-03-04T20:29:26.781Z,69.17
2018-03-04T20:31:54.219Z,90.12
2018-03-04T20:34:23.064Z,70.85
2018-03-04T20:36:50.557Z,81.12
2018-03-04T20:39:17.989Z,78.28
2018-03-04T20:41:45.432Z,84.07
2018-03-04T20:44:12.910Z,75.43
2018-03-04T20:46:40.348Z,70.70
2018-03-04T20:49:07.794Z,79.13
2018-03-04T20:51:36.181Z,74.80
2018-03-04T20:54:03.625Z,65.83
2018-03-04T20:56:31.096Z,75.90
2018-03-04T20:58:58.535Z,68.10
2018-03-04T21:01:27.748Z,79.37
2018-03-04T21:03:55.249Z,71.83
2018-03-04T21:06:22.812Z,77.03
2018-03-04T21:08:50.288Z,77.03
2018-03-04T21:11:17.745Z,75.65
2018-03-04T21:13:45.181Z,71.73
2018-03-04T21:16:12.781Z,70.33
2018-03-04T21:18:40.221Z,70.53
2018-03-04T21:21:09.461Z,71.37
2018-03-04T21:23:36.919Z,71.83
2018-03-04T21:26:04.392Z,80.63
2018-03-04T21:28:33.529Z,88.20
2018-03-04T21:31:00.996Z,80.20
2018-03-04T21:33:28.461Z,77.70
2018-03-04T21:35:56.852Z,76.70
2018-03-04T21:38:24.312Z,78.00
2018-03-04T21:40:52.455Z,72.22
2018-03-04T21:43:19.885Z,74.55
2018-03-04T21:45:47.347Z,71.73
2018-03-04T21:48:14.836Z,68.97
2018-03-04T21:50:42.412Z,62.28
2018-03-04T21:53:09.883Z,70.82
2018-03-04T21:55:37.337Z,62.97
2018-03-04T21:58:04.820Z,73.50
2018-03-04T22:00:32.290Z,68.67
2018-03-04T22:02:59.732Z,72.87
2018-03-04T22:05:27.181Z,69.50
2018-03-04T22:07:56.254Z,68.78
2018-03-04T22:10:23.692Z,73.60
2018-03-04T22:12:51.132Z,63.60
2018-03-04T22:15:22.200Z,70.60
2018-03-04T22:17:50.296Z,66.28
2018-03-04T22:20:17.838Z,71.77
2018-03-04T22:22:45.344Z,68.07
2018-03-04T22:25:12.822Z,72.03
2018-03-04T22:27:40.264Z,76.78
2018-03-04T22:30:07.705Z,70.13
2018-03-04T22:32:35.160Z,62.80
2018-03-04T22:35:02.601Z,77.60
2018-03-04T22:37:30.064Z,74.05
2018-03-04T22:39:58.216Z,72.10
2018-03-04T22:42:25.698Z,74.03
2018-03-04T22:44:53.910Z,69.60
2018-03-04T22:47:29.145Z,72.17
2018-03-04T22:49:56.578Z,77.73
2018-03-04T22:52:24.019Z,73.50
2018-03-04T22:54:51.486Z,74.75
2018-03-04T22:57:19.136Z,74.80
2018-03-04T22:59:46.579Z,74.00
2018-03-04T23:02:14.056Z,73.03
2018-03-04T23:04:43.189Z,81.40
2018-03-04T23:07:10.629Z,72.27
2018-03-04T23:09:38.348Z,79.80
2018-03-04T23:12:05.789Z,69.47
2018-03-04T23:14:33.293Z,68.90
2018-03-04T23:17:00.743Z,59.72
2018-03-04T23:19:28.481Z,69.33
2018-03-04T23:21:56.483Z,67.70
2018-03-04T23:24:23.948Z,67.47
2018-03-04T23:26:51.396Z,79.70
2018-03-04T23:29:18.864Z,71.37
2018-03-04T23:31:46.323Z,78.55
2018-03-04T23:34:14.132Z,78.10
2018-03-04T23:36:41.576Z,70.85
2018-03-04T23:39:10.556Z,76.35
2018-03-04T23:41:38.037Z,66.30
2018-03-04T23:44:05.479Z,69.07
2018-03-04T23:46:32.981Z,71.13
2018-03-04T23:49:00.424Z,72.57
2018-03-04T23:51:28.085Z,60.53
2018-03-04T23:53:55.530Z,59.40
2018-03-04T23:56:24.950Z,71.20
2018-03-04T23:58:52.930Z,74.30
